Wetterdaten: Woche 09.04.18 - 15.04.18 (KW15)
Datum Zeit Temp. A. Pool Temp. Feuchte A. Luftdruck Regen Wind Richtung Sonnenschein ET UV Solar Taupunkt Windchill Windben Empfang
09.04.2018 00:00 9,8 C 8,9 C 86 % 1006,5 hPa 0,0 l/m 2,8 km/h (1 Bft) S-SW 0,00 h 0,000 mm 0,0 UV-I 0 W/m 7,6 C 9,8 C 3,6 km/h (1 Bft) 96,03 %
09.04.2018 01:00 8,9 C 8,9 C 88 % 1006,4 hPa 0,0 l/m 1,0 km/h (0 Bft) S-SW 0,00 h 0,000 mm 0,0 UV-I 0 W/m 7,0 C 8,9 C 1,5 km/h (1 Bft) 99,43 %
09.04.2018 02:00 7,8 C 8,9 C 87 % 1006,1 hPa 0,0 l/m 2,8 km/h (1 Bft) S-SW 0,00 h 0,000 mm 0,0 UV-I 0 W/m 5,8 C 7,8 C 3,5 km/h (1 Bft) 97,35 %
09.04.2018 03:00 7,4 C 8,9 C 87 % 1006,0 hPa 0,0 l/m 5,1 km/h (1 Bft) S-SW 0,00 h 0,000 mm 0,0 UV-I 0 W/m 5,4 C 7,3 C 5,8 km/h (2 Bft) 96,27 %
09.04.2018 04:00 6,3 C 8,9 C 90 % 1005,7 hPa 0,0 l/m 4,6 km/h (1 Bft) S-SW 0,00 h 0,000 mm 0,0 UV-I 0 W/m 4,9 C 6,3 C 5,5 km/h (1 Bft) 99,33 %
09.04.2018 05:00 5,7 C 8,9 C 92 % 1005,5 hPa 0,0 l/m 4,3 km/h (1 Bft) SW 0,00 h 0,000 mm 0,0 UV-I 0 W/m 4,5 C 5,7 C 5,1 km/h (1 Bft) 97,64 %
09.04.2018 06:00 5,5 C 8,9 C 92 % 1005,6 hPa 0,0 l/m 5,3 km/h (1 Bft) SW 0,38 h 0,000 mm 0,0 UV-I 20 W/m 4,3 C 5,3 C 6,2 km/h (2 Bft) 97,70 %
09.04.2018 07:00 7,0 C 8,9 C 88 % 1005,7 hPa 0,0 l/m 3,3 km/h (1 Bft) SW 1,00 h 0,000 mm 0,0 UV-I 142 W/m 5,0 C 7,0 C 4,4 km/h (1 Bft) 97,71 %
09.04.2018 08:00 10,5 C 8,9 C 73 % 1005,6 hPa 0,0 l/m 2,2 km/h (1 Bft) O-SO 1,00 h 0,076 mm 0,6 UV-I 271 W/m 5,9 C 10,5 C 3,2 km/h (1 Bft) 97,92 %
09.04.2018 09:00 13,1 C 8,9 C 67 % 1005,4 hPa 0,0 l/m 5,0 km/h (1 Bft) NO 1,00 h 0,127 mm 1,0 UV-I 403 W/m 7,2 C 13,1 C 6,5 km/h (2 Bft) 99,28 %
09.04.2018 10:00 14,5 C 8,9 C 58 % 1005,4 hPa 0,0 l/m 5,2 km/h (1 Bft) O-NO 1,00 h 0,229 mm 1,7 UV-I 509 W/m 6,3 C 14,4 C 7,2 km/h (2 Bft) 98,12 %
09.04.2018 11:00 16,2 C 8,9 C 53 % 1005,0 hPa 0,0 l/m 6,2 km/h (2 Bft) O-SO 1,00 h 0,305 mm 2,1 UV-I 524 W/m 6,6 C 15,9 C 8,8 km/h (2 Bft) 96,64 %
09.04.2018 12:00 19,5 C 8,9 C 45 % 1004,5 hPa 0,0 l/m 7,4 km/h (2 Bft) O-NO 1,00 h 0,330 mm 3,5 UV-I 851 W/m 7,4 C 18,9 C 10,7 km/h (2 Bft) 98,44 %
09.04.2018 13:00 21,5 C 9,3 C 40 % 1004,0 hPa 0,0 l/m 7,4 km/h (2 Bft) O-NO 1,00 h 0,533 mm 3,3 UV-I 752 W/m 7,3 C 21,0 C 10,8 km/h (2 Bft) 98,14 %
09.04.2018 14:00 22,7 C 9,4 C 36 % 1003,1 hPa 0,0 l/m 6,2 km/h (2 Bft) O-NO 0,92 h 0,508 mm 2,5 UV-I 579 W/m 6,7 C 22,5 C 9,3 km/h (2 Bft) 99,10 %
09.04.2018 15:00 24,5 C 9,4 C 30 % 1002,2 hPa 0,0 l/m 6,2 km/h (2 Bft) NO 1,00 h 0,407 mm 2,1 UV-I 580 W/m 5,9 C 24,3 C 9,1 km/h (2 Bft) 97,04 %
09.04.2018 16:00 24,9 C 9,4 C 25 % 1001,4 hPa 0,0 l/m 13,1 km/h (3 Bft) O 1,00 h 0,431 mm 1,4 UV-I 496 W/m 3,6 C 23,5 C 17,9 km/h (3 Bft) 98,28 %
09.04.2018 17:00 23,7 C 9,4 C 27 % 1001,3 hPa 0,0 l/m 15,8 km/h (3 Bft) SO 1,00 h 0,458 mm 0,7 UV-I 282 W/m 3,3 C 21,7 C 22,0 km/h (4 Bft) 98,03 %
09.04.2018 18:00 22,4 C 9,4 C 27 % 1001,7 hPa 0,0 l/m 18,5 km/h (3 Bft) S 0,87 h 0,355 mm 0,0 UV-I 142 W/m 2,5 C 19,5 C 27,3 km/h (4 Bft) 99,21 %
09.04.2018 19:00 20,0 C 9,4 C 32 % 1002,2 hPa 0,0 l/m 14,3 km/h (3 Bft) S 0,55 h 0,280 mm 0,0 UV-I 26 W/m 2,9 C 17,7 C 20,7 km/h (4 Bft) 96,72 %
09.04.2018 20:00 18,6 C 9,4 C 35 % 1002,6 hPa 0,0 l/m 9,7 km/h (2 Bft) S 0,00 h 0,152 mm 0,0 UV-I 0 W/m 3,0 C 17,2 C 13,5 km/h (3 Bft) 97,59 %
09.04.2018 21:00 15,1 C 9,4 C 47 % 1003,1 hPa 0,0 l/m 5,4 km/h (1 Bft) S-SO 0,00 h 0,102 mm 0,0 UV-I 0 W/m 3,8 C 15,0 C 7,2 km/h (2 Bft) 97,62 %
09.04.2018 22:00 13,3 C 9,4 C 54 % 1003,1 hPa 0,0 l/m 4,6 km/h (1 Bft) SO 0,00 h 0,050 mm 0,0 UV-I 0 W/m 4,1 C 13,2 C 5,9 km/h (2 Bft) 99,52 %
09.04.2018 23:00 12,4 C 9,4 C 57 % 1003,3 hPa 0,0 l/m 6,5 km/h (2 Bft) S-SO 0,00 h 0,026 mm 0,0 UV-I 0 W/m 4,2 C 12,0 C 8,3 km/h (2 Bft) 99,27 %
10.04.2018 00:00 12,1 C 9,4 C 59 % 1003,0 hPa 0,0 l/m 6,6 km/h (2 Bft) S-SO 0,00 h 0,000 mm 0,0 UV-I 0 W/m 4,4 C 11,7 C 8,3 km/h (2 Bft) 96,14 %
10.04.2018 01:00 12,2 C 9,4 C 61 % 1002,6 hPa 0,0 l/m 4,1 km/h (1 Bft) NO 0,00 h 0,025 mm 0,0 UV-I 0 W/m 4,9 C 12,2 C 5,6 km/h (1 Bft) 98,08 %
10.04.2018 02:00 12,2 C 9,4 C 61 % 1002,0 hPa 0,0 l/m 6,8 km/h (2 Bft) NO 0,00 h 0,026 mm 0,0 UV-I 0 W/m 4,9 C 11,5 C 8,7 km/h (2 Bft) 98,25 %
10.04.2018 03:00 12,3 C 9,4 C 62 % 1001,5 hPa 0,0 l/m 9,8 km/h (2 Bft) O 0,00 h 0,025 mm 0,0 UV-I 0 W/m 5,2 C 10,3 C 12,8 km/h (3 Bft) 98,87 %
10.04.2018 04:00 11,8 C 9,4 C 65 % 1001,3 hPa 0,0 l/m 7,8 km/h (2 Bft) O-NO 0,00 h 0,051 mm 0,0 UV-I 0 W/m 5,6 C 10,8 C 10,4 km/h (2 Bft) 96,66 %
10.04.2018 05:00 11,1 C 9,4 C 71 % 1001,1 hPa 0,0 l/m 1,8 km/h (1 Bft) O-NO 0,00 h 0,025 mm 0,0 UV-I 0 W/m 6,0 C 11,1 C 2,9 km/h (1 Bft) 97,17 %
10.04.2018 06:00 10,4 C 9,4 C 75 % 1001,0 hPa 0,0 l/m 3,4 km/h (1 Bft) S-SW 0,03 h 0,000 mm 0,0 UV-I 13 W/m 6,2 C 10,4 C 4,6 km/h (1 Bft) 97,22 %
10.04.2018 07:00 10,7 C 9,4 C 75 % 1001,2 hPa 0,0 l/m 2,9 km/h (1 Bft) SW 0,18 h 0,026 mm 0,0 UV-I 64 W/m 6,4 C 10,7 C 4,1 km/h (1 Bft) 99,46 %
10.04.2018 08:00 11,5 C 9,4 C 74 % 1001,3 hPa 0,0 l/m 1,0 km/h (0 Bft) SW 0,00 h 0,051 mm 0,5 UV-I 127 W/m 6,9 C 11,5 C 1,9 km/h (1 Bft) 98,33 %
10.04.2018 09:00 12,6 C 9,4 C 72 % 1001,4 hPa 0,0 l/m 1,6 km/h (1 Bft) O-NO 0,00 h 0,076 mm 0,7 UV-I 201 W/m 7,6 C 12,6 C 2,7 km/h (1 Bft) 97,05 %
10.04.2018 10:00 14,4 C 9,4 C 66 % 1001,6 hPa 0,0 l/m 4,7 km/h (1 Bft) O-NO 0,28 h 0,101 mm 1,3 UV-I 339 W/m 8,2 C 14,3 C 6,5 km/h (2 Bft) 97,39 %
10.04.2018 11:00 15,7 C 9,4 C 62 % 1001,9 hPa 0,0 l/m 8,4 km/h (2 Bft) O 0,00 h 0,204 mm 1,2 UV-I 273 W/m 8,5 C 14,7 C 12,0 km/h (2 Bft) 98,59 %
10.04.2018 12:00 16,2 C 9,4 C 60 % 1001,8 hPa 0,0 l/m 10,3 km/h (2 Bft) O-NO 0,00 h 0,177 mm 1,3 UV-I 275 W/m 8,4 C 14,3 C 13,5 km/h (3 Bft) 97,20 %
10.04.2018 13:00 17,2 C 9,4 C 55 % 1001,6 hPa 0,0 l/m 9,3 km/h (2 Bft) O-NO 0,00 h 0,204 mm 1,4 UV-I 288 W/m 8,1 C 15,9 C 12,8 km/h (3 Bft) 98,65 %
10.04.2018 14:00 18,4 C 9,4 C 50 % 1001,5 hPa 0,0 l/m 9,5 km/h (2 Bft) NO 0,20 h 0,203 mm 1,5 UV-I 335 W/m 7,9 C 17,1 C 12,7 km/h (3 Bft) 95,39 %
10.04.2018 15:00 19,8 C 9,4 C 45 % 1001,0 hPa 0,0 l/m 12,2 km/h (2 Bft) NO 0,90 h 0,254 mm 2,1 UV-I 543 W/m 7,4 C 17,8 C 16,3 km/h (3 Bft) 98,69 %
10.04.2018 16:00 19,2 C 9,4 C 45 % 1000,9 hPa 0,0 l/m 9,1 km/h (2 Bft) O-NO 0,30 h 0,432 mm 0,9 UV-I 247 W/m 7,0 C 18,1 C 12,8 km/h (3 Bft) 98,03 %
10.04.2018 17:00 18,7 C 9,4 C 48 % 1000,8 hPa 0,0 l/m 8,0 km/h (2 Bft) NO 0,00 h 0,228 mm 0,6 UV-I 141 W/m 7,6 C 18,0 C 10,7 km/h (2 Bft) 99,08 %
10.04.2018 18:00 17,5 C 9,4 C 54 % 1001,0 hPa 0,0 l/m 3,6 km/h (1 Bft) NO 0,00 h 0,153 mm 0,0 UV-I 63 W/m 8,1 C 17,5 C 5,1 km/h (1 Bft) 96,71 %
10.04.2018 19:00 16,1 C 9,4 C 58 % 1001,1 hPa 0,0 l/m 3,7 km/h (1 Bft) O-NO 0,08 h 0,076 mm 0,0 UV-I 21 W/m 7,8 C 16,1 C 5,0 km/h (1 Bft) 97,89 %
10.04.2018 20:00 15,3 C 9,4 C 59 % 1001,4 hPa 0,0 l/m 7,1 km/h (2 Bft) O 0,00 h 0,025 mm 0,0 UV-I 0 W/m 7,3 C 14,7 C 9,8 km/h (2 Bft) 97,72 %
10.04.2018 21:00 13,1 C 9,4 C 66 % 1001,7 hPa 0,0 l/m 5,0 km/h (1 Bft) O-SO 0,00 h 0,051 mm 0,0 UV-I 0 W/m 7,0 C 13,1 C 7,0 km/h (2 Bft) 99,61 %
10.04.2018 22:00 12,9 C 9,4 C 67 % 1001,9 hPa 0,0 l/m 6,3 km/h (2 Bft) O 0,00 h 0,025 mm 0,0 UV-I 0 W/m 6,9 C 12,6 C 8,8 km/h (2 Bft) 96,70 %
10.04.2018 23:00 11,9 C 9,4 C 71 % 1002,3 hPa 0,0 l/m 4,5 km/h (1 Bft) O-NO 0,00 h 0,026 mm 0,0 UV-I 0 W/m 6,7 C 11,9 C 5,8 km/h (2 Bft) 97,05 %
11.04.2018 00:00 11,2 C 9,4 C 73 % 1002,5 hPa 0,0 l/m 2,9 km/h (1 Bft) O-NO 0,00 h 0,000 mm 0,0 UV-I 0 W/m 6,6 C 11,2 C 4,1 km/h (1 Bft) 97,76 %
11.04.2018 01:00 9,6 C 9,4 C 81 % 1003,0 hPa 0,0 l/m 1,1 km/h (1 Bft) W-SW 0,00 h 0,025 mm 0,0 UV-I 0 W/m 6,5 C 9,6 C 1,7 km/h (1 Bft) 99,00 %
11.04.2018 02:00 8,9 C 9,4 C 84 % 1003,7 hPa 0,0 l/m 6,6 km/h (2 Bft) S-SW 0,00 h 0,000 mm 0,0 UV-I 0 W/m 6,3 C 8,3 C 8,5 km/h (2 Bft) 97,48 %
11.04.2018 03:00 10,6 C 9,5 C 80 % 1004,0 hPa 0,0 l/m 11,7 km/h (2 Bft) W-SW 0,00 h 0,026 mm 0,0 UV-I 0 W/m 7,2 C 7,5 C 16,3 km/h (3 Bft) 96,62 %
11.04.2018 04:00 11,0 C 9,8 C 79 % 1004,3 hPa 0,0 l/m 10,9 km/h (2 Bft) W 0,00 h 0,025 mm 0,0 UV-I 0 W/m 7,5 C 8,4 C 15,2 km/h (3 Bft) 98,25 %
11.04.2018 05:00 9,9 C 10,0 C 82 % 1004,7 hPa 0,0 l/m 9,0 km/h (2 Bft) W 0,00 h 0,026 mm 0,0 UV-I 0 W/m 7,0 C 8,2 C 12,0 km/h (2 Bft) 99,27 %
11.04.2018 06:00 9,7 C 10,0 C 84 % 1005,6 hPa 0,0 l/m 11,7 km/h (2 Bft) W 0,05 h 0,025 mm 0,0 UV-I 12 W/m 7,1 C 6,4 C 15,5 km/h (3 Bft) 97,95 %
11.04.2018 07:00 10,0 C 10,0 C 82 % 1006,0 hPa 0,0 l/m 8,2 km/h (2 Bft) W 0,22 h 0,025 mm 0,0 UV-I 77 W/m 7,2 C 8,5 C 11,2 km/h (2 Bft) 95,87 %
11.04.2018 08:00 11,0 C 10,0 C 81 % 1006,4 hPa 0,0 l/m 5,8 km/h (2 Bft) W 0,65 h 0,051 mm 0,7 UV-I 243 W/m 7,8 C 10,5 C 8,4 km/h (2 Bft) 98,47 %
11.04.2018 09:00 12,2 C 10,0 C 78 % 1006,4 hPa 0,0 l/m 5,5 km/h (1 Bft) W 0,77 h 0,127 mm 1,1 UV-I 394 W/m 8,6 C 12,0 C 8,8 km/h (2 Bft) 98,85 %
11.04.2018 10:00 13,2 C 10,0 C 75 % 1006,5 hPa 0,0 l/m 5,4 km/h (1 Bft) NW 0,85 h 0,203 mm 1,9 UV-I 546 W/m 9,0 C 13,0 C 8,3 km/h (2 Bft) 97,12 %
11.04.2018 11:00 14,4 C 10,0 C 71 % 1006,4 hPa 0,0 l/m 5,4 km/h (1 Bft) NW 1,00 h 0,305 mm 2,8 UV-I 689 W/m 9,2 C 14,1 C 7,9 km/h (2 Bft) 96,82 %
11.04.2018 12:00 15,9 C 10,0 C 67 % 1005,9 hPa 0,0 l/m 6,8 km/h (2 Bft) NO 1,00 h 0,381 mm 3,3 UV-I 736 W/m 9,6 C 15,2 C 10,2 km/h (2 Bft) 96,33 %
11.04.2018 13:00 17,3 C 10,0 C 62 % 1005,3 hPa 0,0 l/m 9,4 km/h (2 Bft) N-NO 1,00 h 0,407 mm 3,3 UV-I 729 W/m 9,9 C 15,9 C 13,6 km/h (3 Bft) 98,47 %
11.04.2018 14:00 18,4 C 10,0 C 58 % 1004,7 hPa 0,0 l/m 9,2 km/h (2 Bft) NO 1,00 h 0,457 mm 2,9 UV-I 680 W/m 9,9 C 17,1 C 12,9 km/h (3 Bft) 98,84 %
11.04.2018 15:00 19,1 C 10,0 C 54 % 1004,1 hPa 0,0 l/m 12,3 km/h (3 Bft) O 1,00 h 0,432 mm 2,2 UV-I 593 W/m 9,6 C 17,0 C 16,8 km/h (3 Bft) 98,00 %
11.04.2018 16:00 19,6 C 10,0 C 51 % 1003,7 hPa 0,0 l/m 11,8 km/h (2 Bft) O-NO 1,00 h 0,406 mm 1,3 UV-I 443 W/m 9,3 C 17,7 C 16,2 km/h (3 Bft) 99,09 %
11.04.2018 17:00 19,5 C 10,0 C 52 % 1003,4 hPa 0,0 l/m 13,9 km/h (3 Bft) O-NO 0,60 h 0,330 mm 0,7 UV-I 225 W/m 9,5 C 17,0 C 18,0 km/h (3 Bft) 96,10 %
11.04.2018 18:00 18,7 C 10,0 C 54 % 1003,3 hPa 0,0 l/m 12,1 km/h (2 Bft) O 0,00 h 0,229 mm 0,0 UV-I 84 W/m 9,3 C 16,6 C 16,1 km/h (3 Bft) 99,33 %
11.04.2018 19:00 17,7 C 10,0 C 57 % 1003,3 hPa 0,0 l/m 11,5 km/h (2 Bft) O 0,08 h 0,127 mm 0,0 UV-I 22 W/m 9,0 C 15,6 C 15,1 km/h (3 Bft) 97,82 %
11.04.2018 20:00 16,7 C 10,0 C 59 % 1003,3 hPa 0,0 l/m 10,4 km/h (2 Bft) O 0,00 h 0,076 mm 0,0 UV-I 0 W/m 8,6 C 14,9 C 13,8 km/h (3 Bft) 98,96 %
11.04.2018 21:00 16,3 C 10,0 C 58 % 1003,3 hPa 0,0 l/m 10,1 km/h (2 Bft) O-SO 0,00 h 0,051 mm 0,0 UV-I 0 W/m 8,0 C 14,6 C 13,6 km/h (3 Bft) 96,06 %
11.04.2018 22:00 15,7 C 10,0 C 56 % 1003,1 hPa 0,0 l/m 11,2 km/h (2 Bft) O-SO 0,00 h 0,051 mm 0,0 UV-I 0 W/m 6,9 C 13,4 C 15,5 km/h (3 Bft) 99,07 %
11.04.2018 23:00 15,3 C 10,0 C 54 % 1002,9 hPa 0,0 l/m 11,9 km/h (2 Bft) O 0,00 h 0,076 mm 0,0 UV-I 0 W/m 6,0 C 12,7 C 15,4 km/h (3 Bft) 98,19 %
12.04.2018 00:00 15,0 C 10,0 C 56 % 1002,6 hPa 0,0 l/m 10,9 km/h (2 Bft) O 0,00 h 0,000 mm 0,0 UV-I 0 W/m 6,3 C 12,8 C 14,6 km/h (3 Bft) 99,50 %
12.04.2018 01:00 14,8 C 10,0 C 59 % 1002,3 hPa 0,0 l/m 14,6 km/h (3 Bft) O 0,00 h 0,076 mm 0,0 UV-I 0 W/m 6,8 C 11,2 C 19,5 km/h (3 Bft) 96,85 %
12.04.2018 02:00 14,3 C 10,0 C 63 % 1001,7 hPa 0,0 l/m 12,8 km/h (3 Bft) O 0,00 h 0,076 mm 0,0 UV-I 0 W/m 7,3 C 11,2 C 16,9 km/h (3 Bft) 98,28 %
12.04.2018 03:00 13,9 C 10,0 C 65 % 1001,4 hPa 0,0 l/m 12,4 km/h (3 Bft) O 0,00 h 0,051 mm 0,0 UV-I 0 W/m 7,3 C 10,9 C 16,3 km/h (3 Bft) 98,35 %
12.04.2018 04:00 14,1 C 10,0 C 62 % 1001,0 hPa 0,0 l/m 12,5 km/h (3 Bft) O 0,00 h 0,051 mm 0,0 UV-I 0 W/m 7,0 C 11,1 C 16,5 km/h (3 Bft) 99,23 %
12.04.2018 05:00 14,2 C 10,0 C 62 % 1000,8 hPa 0,0 l/m 13,6 km/h (3 Bft) O 0,00 h 0,051 mm 0,0 UV-I 0 W/m 7,0 C 10,9 C 18,1 km/h (3 Bft) 97,24 %
12.04.2018 06:00 13,7 C 10,0 C 65 % 1000,7 hPa 0,0 l/m 10,1 km/h (2 Bft) O 0,00 h 0,076 mm 0,0 UV-I 11 W/m 7,3 C 11,6 C 13,6 km/h (3 Bft) 97,31 %
12.04.2018 07:00 13,5 C 10,0 C 67 % 1000,8 hPa 0,0 l/m 9,7 km/h (2 Bft) NO 0,00 h 0,051 mm 0,0 UV-I 46 W/m 7,6 C 11,7 C 12,4 km/h (3 Bft) 98,02 %
12.04.2018 08:00 15,0 C 10,0 C 64 % 1000,7 hPa 0,0 l/m 12,1 km/h (2 Bft) O-NO 0,32 h 0,076 mm 0,6 UV-I 186 W/m 8,2 C 12,3 C 15,5 km/h (3 Bft) 99,30 %
12.04.2018 09:00 16,7 C 10,0 C 59 % 1000,6 hPa 0,0 l/m 13,9 km/h (3 Bft) O 0,22 h 0,152 mm 0,6 UV-I 194 W/m 8,7 C 13,7 C 18,2 km/h (3 Bft) 97,50 %
12.04.2018 10:00 17,6 C 10,0 C 56 % 1001,0 hPa 0,0 l/m 8,6 km/h (2 Bft) O-SO 0,00 h 0,178 mm 0,8 UV-I 180 W/m 8,6 C 16,5 C 12,4 km/h (3 Bft) 96,96 %
12.04.2018 11:00 19,9 C 10,1 C 46 % 1000,9 hPa 0,0 l/m 13,8 km/h (3 Bft) O-SO 0,52 h 0,153 mm 1,9 UV-I 402 W/m 7,8 C 17,6 C 19,1 km/h (3 Bft) 97,42 %
12.04.2018 12:00 21,7 C 10,3 C 40 % 1001,2 hPa 0,0 l/m 13,7 km/h (3 Bft) O-SO 0,93 h 0,330 mm 3,3 UV-I 672 W/m 7,5 C 19,7 C 19,1 km/h (3 Bft) 99,15 %
12.04.2018 13:00 22,9 C 10,5 C 37 % 1001,0 hPa 0,0 l/m 13,5 km/h (3 Bft) S-SO 0,95 h 0,508 mm 3,0 UV-I 613 W/m 7,4 C 21,1 C 19,3 km/h (3 Bft) 98,04 %
12.04.2018 14:00 22,6 C 10,6 C 36 % 1000,9 hPa 0,0 l/m 18,3 km/h (3 Bft) SO 0,47 h 0,508 mm 2,1 UV-I 420 W/m 6,7 C 19,9 C 26,1 km/h (4 Bft) 97,66 %
12.04.2018 15:00 21,8 C 10,6 C 39 % 1000,4 hPa 0,0 l/m 20,8 km/h (4 Bft) SO 0,42 h 0,432 mm 1,6 UV-I 362 W/m 7,1 C 18,5 C 28,0 km/h (4 Bft) 96,57 %
12.04.2018 16:00 21,2 C 10,6 C 41 % 1000,3 hPa 0,0 l/m 18,3 km/h (3 Bft) SO 0,28 h 0,406 mm 1,0 UV-I 236 W/m 7,4 C 18,1 C 25,2 km/h (4 Bft) 98,80 %
12.04.2018 17:00 19,7 C 10,6 C 45 % 1000,4 hPa 0,0 l/m 17,7 km/h (3 Bft) SO 0,00 h 0,305 mm 0,5 UV-I 153 W/m 7,5 C 16,3 C 27,2 km/h (4 Bft) 99,33 %
12.04.2018 18:00 17,8 C 10,6 C 51 % 1000,6 hPa 0,0 l/m 16,9 km/h (3 Bft) O-SO 0,03 h 0,229 mm 0,0 UV-I 66 W/m 7,4 C 14,3 C 23,8 km/h (4 Bft) 96,94 %
12.04.2018 19:00 16,9 C 10,6 C 54 % 1000,9 hPa 0,0 l/m 15,8 km/h (3 Bft) SO 0,65 h 0,152 mm 0,0 UV-I 33 W/m 7,4 C 13,4 C 21,0 km/h (4 Bft) 96,65 %
12.04.2018 20:00 16,2 C 10,6 C 54 % 1001,1 hPa 0,0 l/m 19,8 km/h (4 Bft) O-SO 0,00 h 0,101 mm 0,0 UV-I 0 W/m 7,0 C 11,4 C 26,2 km/h (4 Bft) 99,38 %
12.04.2018 21:00 15,6 C 10,6 C 57 % 1001,4 hPa 0,0 l/m 15,8 km/h (3 Bft) O 0,00 h 0,127 mm 0,0 UV-I 0 W/m 7,1 C 11,9 C 21,5 km/h (4 Bft) 97,81 %
12.04.2018 22:00 16,0 C 10,6 C 56 % 1001,3 hPa 0,0 l/m 16,0 km/h (3 Bft) O 0,00 h 0,102 mm 0,0 UV-I 0 W/m 7,2 C 12,3 C 21,7 km/h (4 Bft) 98,34 %
12.04.2018 23:00 15,6 C 10,6 C 59 % 1000,9 hPa 0,0 l/m 17,0 km/h (3 Bft) O 0,00 h 0,102 mm 0,0 UV-I 0 W/m 7,7 C 11,4 C 22,7 km/h (4 Bft) 95,97 %
13.04.2018 00:00 15,0 C 10,6 C 63 % 1000,5 hPa 0,0 l/m 19,2 km/h (3 Bft) O 0,00 h 0,000 mm 0,0 UV-I 0 W/m 7,9 C 10,0 C 25,4 km/h (4 Bft) 99,27 %
13.04.2018 01:00 14,7 C 10,6 C 65 % 1000,6 hPa 0,0 l/m 18,9 km/h (3 Bft) O 0,00 h 0,102 mm 0,0 UV-I 0 W/m 8,1 C 9,7 C 25,0 km/h (4 Bft) 97,96 %
13.04.2018 02:00 14,1 C 10,6 C 68 % 1000,2 hPa 0,0 l/m 18,9 km/h (3 Bft) O 0,00 h 0,076 mm 0,0 UV-I 0 W/m 8,3 C 9,0 C 24,6 km/h (4 Bft) 99,16 %
13.04.2018 03:00 14,0 C 10,6 C 68 % 999,7 hPa 0,0 l/m 10,8 km/h (2 Bft) O-SO 0,00 h 0,076 mm 0,0 UV-I 0 W/m 8,2 C 11,8 C 15,6 km/h (3 Bft) 95,46 %
13.04.2018 04:00 13,4 C 10,6 C 70 % 999,7 hPa 0,0 l/m 9,7 km/h (2 Bft) O 0,00 h 0,051 mm 0,0 UV-I 0 W/m 8,1 C 11,3 C 12,8 km/h (3 Bft) 99,51 %
13.04.2018 05:00 13,0 C 10,6 C 74 % 1000,1 hPa 0,0 l/m 10,1 km/h (2 Bft) O 0,00 h 0,051 mm 0,0 UV-I 0 W/m 8,5 C 10,9 C 13,4 km/h (3 Bft) 97,98 %
13.04.2018 06:00 12,6 C 10,6 C 76 % 1000,4 hPa 0,0 l/m 10,2 km/h (2 Bft) O-SO 0,03 h 0,025 mm 0,0 UV-I 20 W/m 8,4 C 10,4 C 13,7 km/h (3 Bft) 99,17 %
13.04.2018 07:00 12,7 C 10,6 C 76 % 1001,3 hPa 0,0 l/m 6,9 km/h (2 Bft) SO 0,32 h 0,051 mm 0,0 UV-I 120 W/m 8,5 C 11,9 C 9,4 km/h (2 Bft) 95,24 %
13.04.2018 08:00 14,7 C 10,6 C 70 % 1002,0 hPa 0,0 l/m 3,3 km/h (1 Bft) O 0,83 h 0,076 mm 0,7 UV-I 292 W/m 9,3 C 14,6 C 4,7 km/h (1 Bft) 98,74 %
13.04.2018 09:00 17,3 C 10,6 C 58 % 1002,6 hPa 0,0 l/m 3,0 km/h (1 Bft) N 1,00 h 0,178 mm 1,3 UV-I 480 W/m 8,7 C 17,3 C 4,6 km/h (1 Bft) 97,97 %
13.04.2018 10:00 18,6 C 10,6 C 44 % 1003,4 hPa 0,0 l/m 5,3 km/h (1 Bft) W 0,67 h 0,279 mm 1,8 UV-I 482 W/m 6,1 C 18,3 C 8,1 km/h (2 Bft) 98,63 %
13.04.2018 11:00 17,9 C 10,6 C 49 % 1004,2 hPa 0,2 l/m 6,4 km/h (2 Bft) W 0,10 h 0,330 mm 1,3 UV-I 216 W/m 7,0 C 17,4 C 9,8 km/h (2 Bft) 96,15 %
13.04.2018 12:00 13,2 C 10,6 C 74 % 1005,6 hPa 1,2 l/m 8,4 km/h (2 Bft) W 0,00 h 0,178 mm 1,0 UV-I 129 W/m 8,6 C 11,6 C 11,8 km/h (2 Bft) 98,59 %
13.04.2018 13:00 17,0 C 10,6 C 57 % 1006,0 hPa 0,0 l/m 5,5 km/h (1 Bft) NW 0,83 h 0,102 mm 2,9 UV-I 723 W/m 8,2 C 16,8 C 8,7 km/h (2 Bft) 98,39 %
13.04.2018 14:00 18,6 C 10,6 C 46 % 1006,2 hPa 0,0 l/m 6,3 km/h (2 Bft) N-NO 0,80 h 0,432 mm 2,6 UV-I 631 W/m 6,5 C 18,1 C 9,5 km/h (2 Bft) 98,19 %
13.04.2018 15:00 19,3 C 10,6 C 41 % 1006,4 hPa 0,0 l/m 6,2 km/h (2 Bft) N-NO 0,83 h 0,406 mm 1,9 UV-I 568 W/m 5,7 C 19,0 C 9,1 km/h (2 Bft) 98,28 %
13.04.2018 16:00 18,9 C 10,6 C 42 % 1006,9 hPa 0,0 l/m 6,4 km/h (2 Bft) O-SO 0,40 h 0,356 mm 1,0 UV-I 304 W/m 5,7 C 18,6 C 9,1 km/h (2 Bft) 96,39 %
13.04.2018 17:00 17,4 C 10,6 C 52 % 1007,5 hPa 0,0 l/m 3,4 km/h (1 Bft) NO 0,00 h 0,228 mm 0,0 UV-I 53 W/m 7,3 C 17,4 C 4,9 km/h (1 Bft) 98,01 %
13.04.2018 18:00 15,2 C 10,6 C 63 % 1009,4 hPa 1,8 l/m 8,0 km/h (2 Bft) W 0,00 h 0,051 mm 0,0 UV-I 19 W/m 8,1 C 14,0 C 12,0 km/h (2 Bft) 98,53 %
13.04.2018 19:00 12,3 C 10,6 C 77 % 1011,7 hPa 0,2 l/m 9,6 km/h (2 Bft) N 0,03 h 0,051 mm 0,0 UV-I 12 W/m 8,4 C 10,3 C 14,4 km/h (3 Bft) 97,80 %
13.04.2018 20:00 11,8 C 10,6 C 69 % 1013,5 hPa 0,0 l/m 8,0 km/h (2 Bft) W 0,00 h 0,025 mm 0,0 UV-I 2 W/m 6,2 C 10,3 C 13,3 km/h (3 Bft) 97,61 %
13.04.2018 21:00 10,2 C 10,6 C 80 % 1014,3 hPa 0,0 l/m 5,1 km/h (1 Bft) W-SW 0,00 h 0,026 mm 0,0 UV-I 0 W/m 6,9 C 10,1 C 6,7 km/h (2 Bft) 97,25 %
13.04.2018 22:00 9,9 C 10,6 C 77 % 1015,2 hPa 0,0 l/m 5,0 km/h (1 Bft) SW 0,00 h 0,025 mm 0,0 UV-I 0 W/m 6,1 C 9,9 C 6,5 km/h (2 Bft) 99,25 %
13.04.2018 23:00 9,2 C 10,6 C 78 % 1016,0 hPa 0,0 l/m 5,6 km/h (1 Bft) W-SW 0,00 h 0,025 mm 0,0 UV-I 0 W/m 5,6 C 9,0 C 7,6 km/h (2 Bft) 97,27 %
14.04.2018 00:00 8,6 C 10,6 C 79 % 1016,6 hPa 0,0 l/m 3,9 km/h (1 Bft) W 0,00 h 0,000 mm 0,0 UV-I 0 W/m 5,1 C 8,6 C 5,1 km/h (1 Bft) 97,25 %
14.04.2018 01:00 7,0 C 10,6 C 85 % 1017,3 hPa 0,0 l/m 5,2 km/h (1 Bft) S-SO 0,00 h 0,000 mm 0,0 UV-I 0 W/m 4,6 C 6,8 C 6,4 km/h (2 Bft) 98,24 %
14.04.2018 02:00 5,9 C 10,6 C 89 % 1017,8 hPa 0,0 l/m 2,0 km/h (1 Bft) S-SO 0,00 h 0,000 mm 0,0 UV-I 0 W/m 4,2 C 5,9 C 3,0 km/h (1 Bft) 98,09 %
14.04.2018 03:00 5,2 C 10,6 C 91 % 1018,2 hPa 0,0 l/m 2,0 km/h (1 Bft) S-SO 0,00 h 0,000 mm 0,0 UV-I 0 W/m 3,8 C 5,2 C 2,7 km/h (1 Bft) 97,72 %
14.04.2018 04:00 4,8 C 10,6 C 92 % 1018,5 hPa 0,0 l/m 2,2 km/h (1 Bft) S-SO 0,00 h 0,000 mm 0,0 UV-I 0 W/m 3,6 C 4,8 C 3,3 km/h (1 Bft) 96,43 %
14.04.2018 05:00 4,4 C 10,6 C 93 % 1018,9 hPa 0,0 l/m 1,6 km/h (1 Bft) S-SO 0,00 h 0,000 mm 0,0 UV-I 0 W/m 3,3 C 4,4 C 2,3 km/h (1 Bft) 97,94 %
14.04.2018 06:00 4,1 C 10,6 C 93 % 1019,0 hPa 0,0 l/m 5,0 km/h (1 Bft) S 0,43 h 0,000 mm 0,0 UV-I 26 W/m 3,0 C 4,0 C 6,4 km/h (2 Bft) 97,48 %
14.04.2018 07:00 5,5 C 11,0 C 89 % 1019,5 hPa 0,0 l/m 1,3 km/h (1 Bft) S-SW 0,95 h 0,025 mm 0,0 UV-I 140 W/m 3,8 C 5,5 C 2,3 km/h (1 Bft) 95,82 %
14.04.2018 08:00 8,6 C 11,1 C 81 % 1020,1 hPa 0,0 l/m 4,2 km/h (1 Bft) NO 0,90 h 0,051 mm 0,6 UV-I 265 W/m 5,5 C 8,4 C 5,4 km/h (1 Bft) 98,62 %
14.04.2018 09:00 10,7 C 11,1 C 83 % 1020,4 hPa 0,0 l/m 9,4 km/h (2 Bft) NO 1,00 h 0,127 mm 1,2 UV-I 437 W/m 8,0 C 8,8 C 12,7 km/h (3 Bft) 97,83 %
14.04.2018 10:00 12,7 C 11,1 C 74 % 1020,5 hPa 0,0 l/m 11,7 km/h (2 Bft) O-NO 1,00 h 0,229 mm 1,9 UV-I 513 W/m 8,3 C 9,9 C 15,4 km/h (3 Bft) 96,21 %
14.04.2018 11:00 15,0 C 11,1 C 69 % 1020,1 hPa 0,0 l/m 11,6 km/h (2 Bft) NO 1,00 h 0,279 mm 2,8 UV-I 632 W/m 9,4 C 12,6 C 15,9 km/h (3 Bft) 96,98 %
14.04.2018 12:00 16,9 C 11,1 C 59 % 1019,7 hPa 0,0 l/m 13,2 km/h (3 Bft) O-NO 1,00 h 0,381 mm 3,4 UV-I 707 W/m 8,7 C 14,1 C 17,6 km/h (3 Bft) 97,63 %
14.04.2018 13:00 18,4 C 11,1 C 52 % 1019,3 hPa 0,0 l/m 12,3 km/h (3 Bft) O-NO 1,00 h 0,457 mm 3,5 UV-I 692 W/m 8,3 C 16,2 C 16,7 km/h (3 Bft) 97,42 %
14.04.2018 14:00 19,7 C 11,1 C 44 % 1018,8 hPa 0,0 l/m 12,6 km/h (3 Bft) O-NO 1,00 h 0,458 mm 3,1 UV-I 660 W/m 7,2 C 17,6 C 17,1 km/h (3 Bft) 98,57 %
14.04.2018 15:00 20,5 C 11,1 C 41 % 1018,3 hPa 0,0 l/m 12,8 km/h (3 Bft) NO 1,00 h 0,482 mm 2,4 UV-I 571 W/m 6,9 C 18,5 C 17,0 km/h (3 Bft) 97,60 %
14.04.2018 16:00 20,8 C 11,1 C 40 % 1017,6 hPa 0,0 l/m 13,0 km/h (3 Bft) O-NO 1,00 h 0,432 mm 1,5 UV-I 442 W/m 6,8 C 18,7 C 17,5 km/h (3 Bft) 98,09 %
14.04.2018 17:00 20,6 C 11,1 C 41 % 1017,0 hPa 0,0 l/m 12,4 km/h (3 Bft) O-NO 1,00 h 0,381 mm 0,7 UV-I 293 W/m 6,9 C 18,7 C 16,8 km/h (3 Bft) 95,08 %
14.04.2018 18:00 20,0 C 11,1 C 44 % 1016,9 hPa 0,0 l/m 11,6 km/h (2 Bft) O-NO 1,00 h 0,279 mm 0,4 UV-I 157 W/m 7,2 C 18,2 C 15,7 km/h (3 Bft) 98,62 %
14.04.2018 19:00 18,2 C 11,1 C 47 % 1017,1 hPa 0,0 l/m 12,8 km/h (3 Bft) O-NO 0,47 h 0,178 mm 0,0 UV-I 36 W/m 6,6 C 15,8 C 17,0 km/h (3 Bft) 98,14 %
14.04.2018 20:00 16,7 C 11,1 C 51 % 1017,5 hPa 0,0 l/m 13,9 km/h (3 Bft) O-NO 0,00 h 0,127 mm 0,0 UV-I 5 W/m 6,6 C 13,7 C 17,9 km/h (3 Bft) 99,16 %
14.04.2018 21:00 16,0 C 11,1 C 53 % 1017,0 hPa 0,0 l/m 17,1 km/h (3 Bft) O-SO 0,00 h 0,102 mm 0,0 UV-I 0 W/m 6,3 C 11,8 C 23,0 km/h (4 Bft) 95,84 %
14.04.2018 22:00 14,6 C 11,1 C 57 % 1016,3 hPa 0,0 l/m 13,2 km/h (3 Bft) O-NO 0,00 h 0,101 mm 0,0 UV-I 0 W/m 6,3 C 11,5 C 17,6 km/h (3 Bft) 98,33 %
14.04.2018 23:00 13,0 C 11,1 C 64 % 1016,0 hPa 0,0 l/m 8,5 km/h (2 Bft) O-NO 0,00 h 0,077 mm 0,0 UV-I 0 W/m 6,3 C 11,7 C 12,0 km/h (2 Bft) 97,38 %
15.04.2018 00:00 12,1 C 11,1 C 67 % 1015,8 hPa 0,0 l/m 7,5 km/h (2 Bft) O-NO 0,00 h 0,000 mm 0,0 UV-I 0 W/m 6,1 C 11,3 C 10,4 km/h (2 Bft) 99,45 %
15.04.2018 01:00 11,0 C 11,1 C 70 % 1015,4 hPa 0,0 l/m 3,3 km/h (1 Bft) O-SO 0,00 h 0,025 mm 0,0 UV-I 0 W/m 5,8 C 11,0 C 4,8 km/h (1 Bft) 95,77 %
15.04.2018 02:00 8,9 C 11,1 C 79 % 1014,8 hPa 0,0 l/m 1,6 km/h (1 Bft) O-SO 0,00 h 0,026 mm 0,0 UV-I 0 W/m 5,4 C 8,9 C 2,6 km/h (1 Bft) 98,75 %
15.04.2018 03:00 7,6 C 11,1 C 83 % 1014,2 hPa 0,0 l/m 1,1 km/h (1 Bft) O-SO 0,00 h 0,000 mm 0,0 UV-I 0 W/m 4,9 C 7,6 C 1,8 km/h (1 Bft) 98,00 %
15.04.2018 04:00 6,6 C 11,1 C 87 % 1013,7 hPa 0,0 l/m 2,5 km/h (1 Bft) S-SW 0,00 h 0,000 mm 0,0 UV-I 0 W/m 4,6 C 6,6 C 3,4 km/h (1 Bft) 98,11 %
15.04.2018 05:00 6,2 C 11,1 C 88 % 1013,1 hPa 0,0 l/m 3,3 km/h (1 Bft) S-SW 0,00 h 0,000 mm 0,0 UV-I 0 W/m 4,5 C 6,2 C 4,3 km/h (1 Bft) 96,77 %
15.04.2018 06:00 7,2 C 11,1 C 85 % 1012,8 hPa 0,0 l/m 4,0 km/h (1 Bft) O 0,00 h 0,000 mm 0,0 UV-I 12 W/m 4,9 C 6,8 C 5,8 km/h (2 Bft) 97,63 %
15.04.2018 07:00 7,0 C 11,1 C 87 % 1012,7 hPa 0,0 l/m 2,3 km/h (1 Bft) S-SW 0,00 h 0,025 mm 0,0 UV-I 45 W/m 5,0 C 6,9 C 3,4 km/h (1 Bft) 99,06 %
15.04.2018 08:00 8,0 C 11,1 C 86 % 1012,6 hPa 0,0 l/m 4,0 km/h (1 Bft) SW 0,12 h 0,026 mm 0,6 UV-I 141 W/m 5,8 C 8,0 C 5,4 km/h (1 Bft) 97,04 %
15.04.2018 09:00 10,7 C 11,1 C 79 % 1012,5 hPa 0,0 l/m 2,8 km/h (1 Bft) SW 0,67 h 0,076 mm 1,1 UV-I 334 W/m 7,2 C 10,7 C 4,3 km/h (1 Bft) 97,00 %
15.04.2018 10:00 14,7 C 11,1 C 70 % 1012,1 hPa 0,0 l/m 4,6 km/h (1 Bft) O-SO 1,00 h 0,178 mm 2,3 UV-I 596 W/m 9,3 C 14,5 C 7,0 km/h (2 Bft) 97,64 %
15.04.2018 11:00 17,1 C 11,1 C 67 % 1011,8 hPa 0,0 l/m 3,2 km/h (1 Bft) O-NO 0,23 h 0,330 mm 1,3 UV-I 248 W/m 10,8 C 17,0 C 4,9 km/h (1 Bft) 98,88 %
15.04.2018 12:00 18,0 C 11,1 C 66 % 1011,3 hPa 0,0 l/m 2,0 km/h (1 Bft) W-NW 0,22 h 0,152 mm 1,6 UV-I 320 W/m 11,6 C 18,0 C 3,3 km/h (1 Bft) 97,98 %
15.04.2018 13:00 20,7 C 11,1 C 59 % 1010,4 hPa 0,0 l/m 11,1 km/h (2 Bft) O 0,92 h 0,178 mm 3,0 UV-I 630 W/m 12,4 C 19,1 C 15,6 km/h (3 Bft) 96,69 %
15.04.2018 14:00 22,0 C 11,2 C 52 % 1009,6 hPa 0,0 l/m 17,1 km/h (3 Bft) O-NO 0,85 h 0,432 mm 2,4 UV-I 541 W/m 11,6 C 19,3 C 22,3 km/h (4 Bft) 96,94 %
15.04.2018 15:00 22,3 C 11,2 C 51 % 1008,8 hPa 0,0 l/m 13,8 km/h (3 Bft) O-NO 0,42 h 0,432 mm 1,4 UV-I 365 W/m 11,8 C 20,4 C 18,4 km/h (3 Bft) 98,30 %
15.04.2018 16:00 21,8 C 11,2 C 52 % 1008,1 hPa 0,0 l/m 14,7 km/h (3 Bft) O-NO 0,00 h 0,330 mm 0,7 UV-I 199 W/m 11,5 C 19,5 C 19,1 km/h (3 Bft) 99,13 %
15.04.2018 17:00 20,9 C 11,2 C 53 % 1007,6 hPa 0,0 l/m 15,6 km/h (3 Bft) O 0,00 h 0,228 mm 0,0 UV-I 109 W/m 10,8 C 18,2 C 20,9 km/h (4 Bft) 97,45 %
15.04.2018 18:00 19,7 C 11,2 C 56 % 1007,2 hPa 0,0 l/m 13,9 km/h (3 Bft) O 0,00 h 0,178 mm 0,0 UV-I 53 W/m 10,7 C 17,3 C 18,3 km/h (3 Bft) 96,82 %
15.04.2018 19:00 18,4 C 11,2 C 64 % 1007,1 hPa 0,0 l/m 16,6 km/h (3 Bft) O-NO 0,00 h 0,127 mm 0,0 UV-I 15 W/m 11,5 C 15,0 C 21,5 km/h (4 Bft) 98,01 %
15.04.2018 20:00 17,7 C 11,2 C 68 % 1007,0 hPa 0,0 l/m 10,0 km/h (2 Bft) O 0,00 h 0,102 mm 0,0 UV-I 0 W/m 11,6 C 16,1 C 13,6 km/h (3 Bft) 98,84 %
15.04.2018 21:00 17,2 C 11,1 C 69 % 1007,4 hPa 0,0 l/m 6,2 km/h (2 Bft) SO 0,00 h 0,051 mm 0,0 UV-I 0 W/m 11,6 C 16,8 C 8,6 km/h (2 Bft) 97,10 %
15.04.2018 22:00 16,9 C 11,1 C 69 % 1007,4 hPa 0,0 l/m 6,4 km/h (2 Bft) O 0,00 h 0,025 mm 0,0 UV-I 0 W/m 11,2 C 16,5 C 9,1 km/h (2 Bft) 96,89 %
15.04.2018 23:00 16,7 C 11,1 C 70 % 1007,5 hPa 0,0 l/m 9,6 km/h (2 Bft) O 0,00 h 0,025 mm 0,0 UV-I 0 W/m 11,3 C 15,2 C 12,7 km/h (3 Bft) 97,78 %
Min-Datum _ 14.04.18 09.04.18 09.04.18 13.04.18 - 09.04.18 - - - - - 09.04.18 14.04.18 09.04.18 09.04.18
_ Min-Zeit 06:04 00:00 16:19 04:48 - 00:01 - - - - - 16:23 06:13 00:01 00:02
Minimum _ 3,4 C 8,9 C 21 % 999,5 hPa - 0,0 km/h (0 Bft) - - - - - 1,2 C 2,8 C 0,0 km/h (0 Bft) 10,00 %
Max-Datum _ 09.04.18 15.04.18 14.04.18 14.04.18 13.04.18 12.04.18 - 09.04.18 09.04.18 12.04.18 13.04.18 15.04.18 09.04.18 09.04.18 09.04.18
_ Max-Zeit 15:51 14:01 06:07 10:12 18:54 15:32 - 06:39 13:01 12:26 13:06 13:14 15:43 18:43 00:01
Maximum _ 25,2 C 11,7 C 94 % 1020,6 hPa 1,8 l/m 30,2 km/h
SO (5 Bft)
- 0,03 h 0,533 mm 4,3 UV-I 1076 W/m 13,6 C 25,1 C 46,7 km/h
S (6 Bft)
100,00 %
Durchschnitt _ 14,6 C 10,2 C 63 % 1006,6 hPa #3,4 l/m 8,7 km/h (2 Bft) O #51:43 h #25,299 mm 1,7 UV-I 308 W/m 7,2 C 13,3 C 11,9 km/h (2 Bft) 97,83 %